sensor_id;sensor_type;location;lat;lon;timestamp;P1;durP1;ratioP1;P2;durP2;ratioP2
55330;SDS011;58851;42.984;20.336;2022-10-12T00:01:18;38.10;;;27.05;;
55330;SDS011;58851;42.984;20.336;2022-10-12T00:03:44;38.10;;;28.10;;
55330;SDS011;58851;42.984;20.336;2022-10-12T00:06:11;49.55;;;34.85;;
55330;SDS011;58851;42.984;20.336;2022-10-12T00:08:39;64.45;;;47.40;;
55330;SDS011;58851;42.984;20.336;2022-10-12T00:11:06;74.30;;;54.05;;
55330;SDS011;58851;42.984;20.336;2022-10-12T00:13:35;84.40;;;58.55;;
55330;SDS011;58851;42.984;20.336;2022-10-12T00:16:02;56.25;;;38.22;;
55330;SDS011;58851;42.984;20.336;2022-10-12T00:18:29;39.28;;;24.38;;
55330;SDS011;58851;42.984;20.336;2022-10-12T00:21:03;37.17;;;24.67;;
55330;SDS011;58851;42.984;20.336;2022-10-12T00:23:34;48.92;;;34.75;;
55330;SDS011;58851;42.984;20.336;2022-10-12T00:26:04;38.05;;;26.67;;
55330;SDS011;58851;42.984;20.336;2022-10-12T00:28:35;41.50;;;26.63;;
55330;SDS011;58851;42.984;20.336;2022-10-12T00:31:05;41.70;;;26.23;;
55330;SDS011;58851;42.984;20.336;2022-10-12T00:33:35;43.83;;;26.25;;
55330;SDS011;58851;42.984;20.336;2022-10-12T00:36:13;38.92;;;23.27;;
55330;SDS011;58851;42.984;20.336;2022-10-12T00:38:45;33.78;;;21.77;;
55330;SDS011;58851;42.984;20.336;2022-10-12T00:41:13;38.33;;;25.98;;
55330;SDS011;58851;42.984;20.336;2022-10-12T00:43:40;41.38;;;22.40;;
55330;SDS011;58851;42.984;20.336;2022-10-12T00:46:27;36.85;;;21.80;;
55330;SDS011;58851;42.984;20.336;2022-10-12T00:51:42;36.85;;;21.88;;
55330;SDS011;58851;42.984;20.336;2022-10-12T00:54:14;28.17;;;20.13;;
55330;SDS011;58851;42.984;20.336;2022-10-12T00:56:44;30.40;;;21.23;;
55330;SDS011;58851;42.984;20.336;2022-10-12T00:59:15;34.28;;;22.45;;
55330;SDS011;58851;42.984;20.336;2022-10-12T01:01:45;31.75;;;22.83;;
55330;SDS011;58851;42.984;20.336;2022-10-12T01:04:11;35.38;;;23.98;;
55330;SDS011;58851;42.984;20.336;2022-10-12T01:06:37;34.05;;;22.80;;
55330;SDS011;58851;42.984;20.336;2022-10-12T01:09:03;39.05;;;26.02;;
55330;SDS011;58851;42.984;20.336;2022-10-12T01:11:29;37.97;;;25.00;;
55330;SDS011;58851;42.984;20.336;2022-10-12T01:13:55;42.92;;;24.77;;
55330;SDS011;58851;42.984;20.336;2022-10-12T01:22:06;35.45;;;23.10;;
55330;SDS011;58851;42.984;20.336;2022-10-12T01:36:14;31.73;;;18.27;;
55330;SDS011;58851;42.984;20.336;2022-10-12T01:38:50;29.38;;;19.67;;
55330;SDS011;58851;42.984;20.336;2022-10-12T01:41:25;30.90;;;21.67;;
55330;SDS011;58851;42.984;20.336;2022-10-12T01:43:58;35.38;;;24.58;;
55330;SDS011;58851;42.984;20.336;2022-10-12T01:48:53;73.55;;;45.72;;
55330;SDS011;58851;42.984;20.336;2022-10-12T01:51:28;76.07;;;48.10;;
55330;SDS011;58851;42.984;20.336;2022-10-12T01:54:07;64.72;;;41.50;;
55330;SDS011;58851;42.984;20.336;2022-10-12T01:59:20;32.17;;;19.13;;
55330;SDS011;58851;42.984;20.336;2022-10-12T02:05:23;27.10;;;17.25;;
55330;SDS011;58851;42.984;20.336;2022-10-12T02:10:43;25.10;;;14.65;;
55330;SDS011;58851;42.984;20.336;2022-10-12T02:13:14;35.58;;;22.38;;
55330;SDS011;58851;42.984;20.336;2022-10-12T02:15:44;30.98;;;21.50;;
55330;SDS011;58851;42.984;20.336;2022-10-12T02:18:13;19.75;;;15.63;;
55330;SDS011;58851;42.984;20.336;2022-10-12T02:20:42;23.65;;;16.55;;
55330;SDS011;58851;42.984;20.336;2022-10-12T02:23:13;29.45;;;17.55;;
55330;SDS011;58851;42.984;20.336;2022-10-12T02:25:40;36.45;;;23.65;;
55330;SDS011;58851;42.984;20.336;2022-10-12T02:28:08;29.83;;;22.88;;
55330;SDS011;58851;42.984;20.336;2022-10-12T02:30:37;31.35;;;23.38;;
55330;SDS011;58851;42.984;20.336;2022-10-12T02:33:34;30.10;;;20.92;;
55330;SDS011;58851;42.984;20.336;2022-10-12T02:36:11;32.03;;;20.90;;
55330;SDS011;58851;42.984;20.336;2022-10-12T02:39:22;40.78;;;22.48;;
55330;SDS011;58851;42.984;20.336;2022-10-12T02:41:45;35.05;;;22.38;;
55330;SDS011;58851;42.984;20.336;2022-10-12T02:44:21;34.85;;;23.45;;
55330;SDS011;58851;42.984;20.336;2022-10-12T02:46:51;34.15;;;23.92;;
55330;SDS011;58851;42.984;20.336;2022-10-12T02:49:19;37.47;;;24.63;;
55330;SDS011;58851;42.984;20.336;2022-10-12T02:51:48;42.47;;;26.35;;
55330;SDS011;58851;42.984;20.336;2022-10-12T02:54:15;68.85;;;43.58;;
55330;SDS011;58851;42.984;20.336;2022-10-12T02:56:42;72.53;;;48.38;;
55330;SDS011;58851;42.984;20.336;2022-10-12T02:59:09;69.18;;;44.28;;
55330;SDS011;58851;42.984;20.336;2022-10-12T03:01:35;83.22;;;50.17;;
55330;SDS011;58851;42.984;20.336;2022-10-12T03:04:01;88.40;;;54.75;;
55330;SDS011;58851;42.984;20.336;2022-10-12T03:06:26;113.00;;;71.38;;
55330;SDS011;58851;42.984;20.336;2022-10-12T03:08:52;104.10;;;67.82;;
55330;SDS011;58851;42.984;20.336;2022-10-12T03:11:21;82.05;;;55.17;;
55330;SDS011;58851;42.984;20.336;2022-10-12T03:13:50;51.53;;;31.77;;
55330;SDS011;58851;42.984;20.336;2022-10-12T03:16:17;39.40;;;26.60;;
55330;SDS011;58851;42.984;20.336;2022-10-12T03:18:43;40.15;;;25.85;;
55330;SDS011;58851;42.984;20.336;2022-10-12T03:21:08;33.88;;;24.15;;
55330;SDS011;58851;42.984;20.336;2022-10-12T03:23:35;36.15;;;25.42;;
55330;SDS011;58851;42.984;20.336;2022-10-12T03:26:01;47.53;;;29.15;;
55330;SDS011;58851;42.984;20.336;2022-10-12T03:28:27;45.10;;;29.33;;
55330;SDS011;58851;42.984;20.336;2022-10-12T03:30:53;35.72;;;23.17;;
55330;SDS011;58851;42.984;20.336;2022-10-12T03:33:19;27.02;;;18.20;;
55330;SDS011;58851;42.984;20.336;2022-10-12T03:35:45;28.20;;;19.63;;
55330;SDS011;58851;42.984;20.336;2022-10-12T03:38:12;26.88;;;19.90;;
55330;SDS011;58851;42.984;20.336;2022-10-12T03:40:39;30.30;;;20.35;;
55330;SDS011;58851;42.984;20.336;2022-10-12T03:43:05;37.50;;;24.88;;
55330;SDS011;58851;42.984;20.336;2022-10-12T03:45:31;33.47;;;22.85;;
55330;SDS011;58851;42.984;20.336;2022-10-12T03:47:58;30.15;;;21.00;;
55330;SDS011;58851;42.984;20.336;2022-10-12T03:50:24;40.35;;;22.85;;
55330;SDS011;58851;42.984;20.336;2022-10-12T03:52:49;31.67;;;22.17;;
55330;SDS011;58851;42.984;20.336;2022-10-12T03:55:15;32.83;;;21.45;;
55330;SDS011;58851;42.984;20.336;2022-10-12T03:57:41;28.13;;;20.70;;
55330;SDS011;58851;42.984;20.336;2022-10-12T04:00:07;30.58;;;21.58;;
55330;SDS011;58851;42.984;20.336;2022-10-12T04:02:33;29.58;;;21.52;;
55330;SDS011;58851;42.984;20.336;2022-10-12T04:04:59;28.85;;;21.80;;
55330;SDS011;58851;42.984;20.336;2022-10-12T04:07:26;30.88;;;21.30;;
55330;SDS011;58851;42.984;20.336;2022-10-12T04:09:52;33.13;;;21.45;;
55330;SDS011;58851;42.984;20.336;2022-10-12T04:12:22;30.05;;;21.50;;
55330;SDS011;58851;42.984;20.336;2022-10-12T04:14:47;30.45;;;23.27;;
55330;SDS011;58851;42.984;20.336;2022-10-12T04:17:14;32.45;;;22.55;;
55330;SDS011;58851;42.984;20.336;2022-10-12T04:19:40;33.75;;;21.50;;
55330;SDS011;58851;42.984;20.336;2022-10-12T04:22:06;47.65;;;28.85;;
55330;SDS011;58851;42.984;20.336;2022-10-12T04:24:32;44.17;;;29.15;;
55330;SDS011;58851;42.984;20.336;2022-10-12T04:26:58;49.75;;;31.08;;
55330;SDS011;58851;42.984;20.336;2022-10-12T04:29:24;50.53;;;30.48;;
55330;SDS011;58851;42.984;20.336;2022-10-12T04:31:50;41.33;;;28.88;;
55330;SDS011;58851;42.984;20.336;2022-10-12T04:34:16;51.53;;;30.58;;
55330;SDS011;58851;42.984;20.336;2022-10-12T04:36:42;55.95;;;36.00;;
55330;SDS011;58851;42.984;20.336;2022-10-12T04:39:07;56.45;;;34.08;;
55330;SDS011;58851;42.984;20.336;2022-10-12T04:41:33;38.45;;;27.10;;
55330;SDS011;58851;42.984;20.336;2022-10-12T04:43:59;39.42;;;25.40;;
55330;SDS011;58851;42.984;20.336;2022-10-12T04:46:25;35.08;;;24.85;;
55330;SDS011;58851;42.984;20.336;2022-10-12T04:48:51;38.05;;;25.85;;
55330;SDS011;58851;42.984;20.336;2022-10-12T04:51:17;43.75;;;29.38;;
55330;SDS011;58851;42.984;20.336;2022-10-12T04:53:43;41.45;;;27.70;;
55330;SDS011;58851;42.984;20.336;2022-10-12T04:56:09;34.05;;;25.20;;
55330;SDS011;58851;42.984;20.336;2022-10-12T04:58:34;37.20;;;26.02;;
55330;SDS011;58851;42.984;20.336;2022-10-12T05:01:00;43.03;;;26.10;;
55330;SDS011;58851;42.984;20.336;2022-10-12T05:03:26;36.13;;;26.95;;
55330;SDS011;58851;42.984;20.336;2022-10-12T05:05:52;39.15;;;28.15;;
55330;SDS011;58851;42.984;20.336;2022-10-12T05:08:18;39.10;;;28.00;;
55330;SDS011;58851;42.984;20.336;2022-10-12T05:10:44;40.17;;;28.17;;
55330;SDS011;58851;42.984;20.336;2022-10-12T05:13:11;42.03;;;29.48;;
55330;SDS011;58851;42.984;20.336;2022-10-12T05:15:37;46.72;;;31.73;;
55330;SDS011;58851;42.984;20.336;2022-10-12T05:18:03;42.40;;;28.80;;
55330;SDS011;58851;42.984;20.336;2022-10-12T05:20:29;45.30;;;29.63;;
55330;SDS011;58851;42.984;20.336;2022-10-12T05:22:56;45.67;;;29.80;;
55330;SDS011;58851;42.984;20.336;2022-10-12T05:25:22;45.40;;;29.67;;
55330;SDS011;58851;42.984;20.336;2022-10-12T05:27:48;47.42;;;29.70;;
55330;SDS011;58851;42.984;20.336;2022-10-12T05:30:14;43.13;;;29.60;;
55330;SDS011;58851;42.984;20.336;2022-10-12T05:32:40;58.28;;;30.02;;
55330;SDS011;58851;42.984;20.336;2022-10-12T05:35:07;41.90;;;28.88;;
55330;SDS011;58851;42.984;20.336;2022-10-12T05:37:34;46.10;;;29.52;;
55330;SDS011;58851;42.984;20.336;2022-10-12T05:40:00;48.97;;;29.05;;
55330;SDS011;58851;42.984;20.336;2022-10-12T05:42:26;39.60;;;27.55;;
55330;SDS011;58851;42.984;20.336;2022-10-12T05:44:52;40.70;;;27.45;;
55330;SDS011;58851;42.984;20.336;2022-10-12T05:47:17;37.25;;;25.02;;
55330;SDS011;58851;42.984;20.336;2022-10-12T05:49:43;41.40;;;29.30;;
55330;SDS011;58851;42.984;20.336;2022-10-12T05:52:09;41.42;;;27.60;;
55330;SDS011;58851;42.984;20.336;2022-10-12T05:54:35;43.88;;;30.88;;
55330;SDS011;58851;42.984;20.336;2022-10-12T05:57:01;50.13;;;35.40;;
55330;SDS011;58851;42.984;20.336;2022-10-12T05:59:27;47.33;;;30.33;;
55330;SDS011;58851;42.984;20.336;2022-10-12T06:01:53;40.20;;;27.77;;
55330;SDS011;58851;42.984;20.336;2022-10-12T06:04:18;42.72;;;28.77;;
55330;SDS011;58851;42.984;20.336;2022-10-12T06:06:44;40.40;;;28.33;;
55330;SDS011;58851;42.984;20.336;2022-10-12T06:09:10;41.15;;;28.52;;
55330;SDS011;58851;42.984;20.336;2022-10-12T06:11:37;46.83;;;31.00;;
55330;SDS011;58851;42.984;20.336;2022-10-12T06:14:03;51.70;;;32.42;;
55330;SDS011;58851;42.984;20.336;2022-10-12T06:16:29;47.47;;;33.33;;
55330;SDS011;58851;42.984;20.336;2022-10-12T06:18:55;42.22;;;27.65;;
55330;SDS011;58851;42.984;20.336;2022-10-12T06:21:20;51.10;;;31.88;;
55330;SDS011;58851;42.984;20.336;2022-10-12T06:23:46;49.42;;;32.08;;
55330;SDS011;58851;42.984;20.336;2022-10-12T06:26:12;46.13;;;31.10;;
55330;SDS011;58851;42.984;20.336;2022-10-12T06:28:38;43.70;;;29.55;;
55330;SDS011;58851;42.984;20.336;2022-10-12T06:31:04;53.53;;;31.48;;
55330;SDS011;58851;42.984;20.336;2022-10-12T06:33:30;37.88;;;28.08;;
55330;SDS011;58851;42.984;20.336;2022-10-12T06:35:56;42.15;;;31.05;;
55330;SDS011;58851;42.984;20.336;2022-10-12T06:38:22;43.88;;;30.10;;
55330;SDS011;58851;42.984;20.336;2022-10-12T06:40:48;43.75;;;31.25;;
55330;SDS011;58851;42.984;20.336;2022-10-12T06:43:14;41.80;;;30.17;;
55330;SDS011;58851;42.984;20.336;2022-10-12T06:45:40;44.00;;;29.55;;
55330;SDS011;58851;42.984;20.336;2022-10-12T06:48:06;39.08;;;28.67;;
55330;SDS011;58851;42.984;20.336;2022-10-12T06:50:32;34.95;;;26.10;;
55330;SDS011;58851;42.984;20.336;2022-10-12T06:52:57;39.03;;;28.50;;
55330;SDS011;58851;42.984;20.336;2022-10-12T06:55:23;42.13;;;29.10;;
55330;SDS011;58851;42.984;20.336;2022-10-12T06:57:49;44.47;;;31.02;;
55330;SDS011;58851;42.984;20.336;2022-10-12T07:00:15;45.63;;;29.95;;
55330;SDS011;58851;42.984;20.336;2022-10-12T07:02:42;41.72;;;29.98;;
55330;SDS011;58851;42.984;20.336;2022-10-12T07:05:07;40.65;;;28.60;;
55330;SDS011;58851;42.984;20.336;2022-10-12T07:07:34;48.30;;;30.20;;
55330;SDS011;58851;42.984;20.336;2022-10-12T07:10:01;56.38;;;39.60;;
55330;SDS011;58851;42.984;20.336;2022-10-12T07:12:28;43.78;;;32.83;;
55330;SDS011;58851;42.984;20.336;2022-10-12T07:14:54;36.42;;;28.63;;
55330;SDS011;58851;42.984;20.336;2022-10-12T07:17:20;39.75;;;28.67;;
55330;SDS011;58851;42.984;20.336;2022-10-12T07:19:46;42.13;;;30.30;;
55330;SDS011;58851;42.984;20.336;2022-10-12T07:22:18;43.97;;;30.08;;
55330;SDS011;58851;42.984;20.336;2022-10-12T07:24:52;43.83;;;30.85;;
55330;SDS011;58851;42.984;20.336;2022-10-12T07:27:18;45.17;;;29.63;;
55330;SDS011;58851;42.984;20.336;2022-10-12T07:29:44;47.47;;;31.40;;
55330;SDS011;58851;42.984;20.336;2022-10-12T07:32:09;60.40;;;38.95;;
55330;SDS011;58851;42.984;20.336;2022-10-12T07:34:35;50.38;;;34.75;;
55330;SDS011;58851;42.984;20.336;2022-10-12T07:37:01;48.17;;;35.67;;
55330;SDS011;58851;42.984;20.336;2022-10-12T07:39:27;40.58;;;29.23;;
55330;SDS011;58851;42.984;20.336;2022-10-12T07:41:53;51.53;;;34.03;;
55330;SDS011;58851;42.984;20.336;2022-10-12T07:44:20;45.40;;;31.88;;
55330;SDS011;58851;42.984;20.336;2022-10-12T07:46:48;50.97;;;37.72;;
55330;SDS011;58851;42.984;20.336;2022-10-12T07:49:15;47.30;;;34.22;;
55330;SDS011;58851;42.984;20.336;2022-10-12T07:51:40;42.13;;;30.77;;
55330;SDS011;58851;42.984;20.336;2022-10-12T07:54:06;42.78;;;29.17;;
55330;SDS011;58851;42.984;20.336;2022-10-12T07:56:33;50.35;;;33.25;;
55330;SDS011;58851;42.984;20.336;2022-10-12T07:58:59;52.33;;;34.83;;
55330;SDS011;58851;42.984;20.336;2022-10-12T08:01:28;48.92;;;33.60;;
55330;SDS011;58851;42.984;20.336;2022-10-12T08:03:54;44.55;;;32.03;;
55330;SDS011;58851;42.984;20.336;2022-10-12T08:06:22;50.60;;;35.58;;
55330;SDS011;58851;42.984;20.336;2022-10-12T08:08:49;47.53;;;31.40;;
55330;SDS011;58851;42.984;20.336;2022-10-12T08:11:15;52.88;;;36.33;;
55330;SDS011;58851;42.984;20.336;2022-10-12T08:13:42;58.60;;;39.08;;
55330;SDS011;58851;42.984;20.336;2022-10-12T08:16:13;41.33;;;30.08;;
55330;SDS011;58851;42.984;20.336;2022-10-12T08:18:42;70.53;;;47.70;;
55330;SDS011;58851;42.984;20.336;2022-10-12T08:21:09;44.42;;;30.63;;
55330;SDS011;58851;42.984;20.336;2022-10-12T08:23:36;47.15;;;32.03;;
55330;SDS011;58851;42.984;20.336;2022-10-12T08:26:02;46.58;;;31.13;;
55330;SDS011;58851;42.984;20.336;2022-10-12T08:28:29;41.25;;;30.67;;
55330;SDS011;58851;42.984;20.336;2022-10-12T08:30:56;42.90;;;32.13;;
55330;SDS011;58851;42.984;20.336;2022-10-12T08:33:22;44.20;;;30.05;;
55330;SDS011;58851;42.984;20.336;2022-10-12T08:35:48;41.17;;;31.02;;
55330;SDS011;58851;42.984;20.336;2022-10-12T08:38:14;45.03;;;31.25;;
55330;SDS011;58851;42.984;20.336;2022-10-12T08:40:47;49.63;;;36.83;;
55330;SDS011;58851;42.984;20.336;2022-10-12T08:46:25;37.97;;;28.15;;
55330;SDS011;58851;42.984;20.336;2022-10-12T08:49:00;54.67;;;39.10;;
55330;SDS011;58851;42.984;20.336;2022-10-12T08:51:31;39.72;;;27.80;;
55330;SDS011;58851;42.984;20.336;2022-10-12T08:54:07;44.17;;;32.28;;
55330;SDS011;58851;42.984;20.336;2022-10-12T08:56:37;43.63;;;29.48;;
55330;SDS011;58851;42.984;20.336;2022-10-12T08:59:07;35.92;;;28.02;;
55330;SDS011;58851;42.984;20.336;2022-10-12T09:04:39;38.95;;;30.45;;
55330;SDS011;58851;42.984;20.336;2022-10-12T09:07:30;38.90;;;29.77;;
55330;SDS011;58851;42.984;20.336;2022-10-12T09:15:56;37.03;;;26.65;;
55330;SDS011;58851;42.984;20.336;2022-10-12T09:21:03;32.85;;;24.45;;
55330;SDS011;58851;42.984;20.336;2022-10-12T09:23:36;34.47;;;24.00;;
55330;SDS011;58851;42.984;20.336;2022-10-12T09:28:44;33.60;;;24.25;;
55330;SDS011;58851;42.984;20.336;2022-10-12T09:31:33;33.65;;;23.40;;
55330;SDS011;58851;42.984;20.336;2022-10-12T09:34:05;34.88;;;22.98;;
55330;SDS011;58851;42.984;20.336;2022-10-12T09:36:33;30.00;;;21.80;;
55330;SDS011;58851;42.984;20.336;2022-10-12T09:39:02;41.10;;;29.80;;
55330;SDS011;58851;42.984;20.336;2022-10-12T09:41:35;34.83;;;25.38;;
55330;SDS011;58851;42.984;20.336;2022-10-12T09:44:09;31.83;;;24.45;;
55330;SDS011;58851;42.984;20.336;2022-10-12T09:46:50;30.40;;;21.23;;
55330;SDS011;58851;42.984;20.336;2022-10-12T09:49:44;38.10;;;24.65;;
55330;SDS011;58851;42.984;20.336;2022-10-12T09:52:11;32.42;;;23.45;;
55330;SDS011;58851;42.984;20.336;2022-10-12T09:57:42;28.23;;;20.50;;
55330;SDS011;58851;42.984;20.336;2022-10-12T10:00:26;29.58;;;21.48;;
55330;SDS011;58851;42.984;20.336;2022-10-12T10:03:01;29.45;;;20.30;;
55330;SDS011;58851;42.984;20.336;2022-10-12T10:05:34;28.95;;;19.35;;
55330;SDS011;58851;42.984;20.336;2022-10-12T10:08:18;26.25;;;19.35;;
55330;SDS011;58851;42.984;20.336;2022-10-12T10:10:53;32.83;;;19.33;;
55330;SDS011;58851;42.984;20.336;2022-10-12T10:13:20;29.50;;;20.17;;
55330;SDS011;58851;42.984;20.336;2022-10-12T10:15:49;28.98;;;21.13;;
55330;SDS011;58851;42.984;20.336;2022-10-12T10:18:32;28.38;;;21.52;;
55330;SDS011;58851;42.984;20.336;2022-10-12T10:20:59;29.45;;;22.95;;
55330;SDS011;58851;42.984;20.336;2022-10-12T10:23:27;28.75;;;22.92;;
55330;SDS011;58851;42.984;20.336;2022-10-12T10:28:30;31.42;;;23.58;;
55330;SDS011;58851;42.984;20.336;2022-10-12T10:31:01;24.35;;;19.02;;
55330;SDS011;58851;42.984;20.336;2022-10-12T10:33:31;26.17;;;20.50;;
55330;SDS011;58851;42.984;20.336;2022-10-12T10:36:19;24.38;;;17.63;;
55330;SDS011;58851;42.984;20.336;2022-10-12T10:41:23;26.38;;;19.85;;
55330;SDS011;58851;42.984;20.336;2022-10-12T10:44:44;31.75;;;22.88;;
55330;SDS011;58851;42.984;20.336;2022-10-12T10:47:09;30.35;;;18.85;;
55330;SDS011;58851;42.984;20.336;2022-10-12T10:49:37;29.60;;;22.00;;
55330;SDS011;58851;42.984;20.336;2022-10-12T10:52:52;31.33;;;24.67;;
55330;SDS011;58851;42.984;20.336;2022-10-12T10:57:40;33.28;;;24.48;;
55330;SDS011;58851;42.984;20.336;2022-10-12T11:00:10;35.95;;;25.90;;
55330;SDS011;58851;42.984;20.336;2022-10-12T11:05:17;30.75;;;22.45;;
55330;SDS011;58851;42.984;20.336;2022-10-12T11:07:56;31.05;;;21.75;;
55330;SDS011;58851;42.984;20.336;2022-10-12T11:13:11;34.42;;;23.88;;
55330;SDS011;58851;42.984;20.336;2022-10-12T11:18:24;32.47;;;23.35;;
55330;SDS011;58851;42.984;20.336;2022-10-12T11:21:06;32.15;;;23.98;;
55330;SDS011;58851;42.984;20.336;2022-10-12T11:23:42;30.73;;;21.88;;
55330;SDS011;58851;42.984;20.336;2022-10-12T11:26:21;38.65;;;24.05;;
55330;SDS011;58851;42.984;20.336;2022-10-12T11:28:52;33.67;;;24.67;;
55330;SDS011;58851;42.984;20.336;2022-10-12T11:31:30;32.85;;;23.83;;
55330;SDS011;58851;42.984;20.336;2022-10-12T11:34:00;58.00;;;38.53;;
55330;SDS011;58851;42.984;20.336;2022-10-12T11:36:31;59.63;;;38.90;;
55330;SDS011;58851;42.984;20.336;2022-10-12T11:39:00;38.90;;;28.52;;
55330;SDS011;58851;42.984;20.336;2022-10-12T11:41:37;87.03;;;55.30;;
55330;SDS011;58851;42.984;20.336;2022-10-12T11:44:31;33.83;;;25.92;;
55330;SDS011;58851;42.984;20.336;2022-10-12T11:47:16;40.83;;;29.13;;
55330;SDS011;58851;42.984;20.336;2022-10-12T11:49:53;29.45;;;22.25;;
55330;SDS011;58851;42.984;20.336;2022-10-12T11:52:47;38.58;;;27.80;;
55330;SDS011;58851;42.984;20.336;2022-10-12T12:05:52;28.17;;;20.33;;
55330;SDS011;58851;42.984;20.336;2022-10-12T12:11:22;31.65;;;21.50;;
55330;SDS011;58851;42.984;20.336;2022-10-12T12:16:49;30.17;;;22.00;;
55330;SDS011;58851;42.984;20.336;2022-10-12T12:19:36;33.00;;;23.15;;
55330;SDS011;58851;42.984;20.336;2022-10-12T12:25:12;36.40;;;26.23;;
55330;SDS011;58851;42.984;20.336;2022-10-12T12:27:56;74.55;;;54.05;;
55330;SDS011;58851;42.984;20.336;2022-10-12T12:30:43;34.15;;;21.85;;
55330;SDS011;58851;42.984;20.336;2022-10-12T12:33:46;32.67;;;23.02;;
55330;SDS011;58851;42.984;20.336;2022-10-12T12:38:50;32.33;;;23.95;;
55330;SDS011;58851;42.984;20.336;2022-10-12T12:41:19;45.28;;;30.98;;
55330;SDS011;58851;42.984;20.336;2022-10-12T12:52:11;41.10;;;30.40;;
55330;SDS011;58851;42.984;20.336;2022-10-12T12:54:58;37.20;;;29.08;;
55330;SDS011;58851;42.984;20.336;2022-10-12T13:00:20;33.17;;;23.98;;
55330;SDS011;58851;42.984;20.336;2022-10-12T13:16:49;39.03;;;27.60;;
55330;SDS011;58851;42.984;20.336;2022-10-12T13:19:25;40.20;;;29.48;;
55330;SDS011;58851;42.984;20.336;2022-10-12T13:21:53;29.88;;;23.38;;
55330;SDS011;58851;42.984;20.336;2022-10-12T13:24:21;31.55;;;21.52;;
55330;SDS011;58851;42.984;20.336;2022-10-12T13:29:57;32.45;;;22.77;;
55330;SDS011;58851;42.984;20.336;2022-10-12T13:35:02;36.63;;;23.15;;
55330;SDS011;58851;42.984;20.336;2022-10-12T13:37:34;39.97;;;26.85;;
55330;SDS011;58851;42.984;20.336;2022-10-12T13:40:00;30.48;;;23.33;;
55330;SDS011;58851;42.984;20.336;2022-10-12T13:42:26;28.38;;;22.23;;
55330;SDS011;58851;42.984;20.336;2022-10-12T13:44:56;36.13;;;23.00;;
55330;SDS011;58851;42.984;20.336;2022-10-12T13:47:27;34.67;;;24.20;;
55330;SDS011;58851;42.984;20.336;2022-10-12T13:49:54;37.28;;;26.00;;
55330;SDS011;58851;42.984;20.336;2022-10-12T13:52:26;43.80;;;27.42;;
55330;SDS011;58851;42.984;20.336;2022-10-12T13:54:53;41.95;;;27.85;;
55330;SDS011;58851;42.984;20.336;2022-10-12T13:57:29;43.17;;;28.77;;
55330;SDS011;58851;42.984;20.336;2022-10-12T13:59:59;42.08;;;29.85;;
55330;SDS011;58851;42.984;20.336;2022-10-12T14:02:32;51.17;;;36.17;;
55330;SDS011;58851;42.984;20.336;2022-10-12T14:04:59;42.08;;;33.75;;
55330;SDS011;58851;42.984;20.336;2022-10-12T14:07:36;40.50;;;31.20;;
55330;SDS011;58851;42.984;20.336;2022-10-12T14:12:49;43.58;;;29.55;;
55330;SDS011;58851;42.984;20.336;2022-10-12T14:15:17;60.78;;;40.17;;
55330;SDS011;58851;42.984;20.336;2022-10-12T14:17:46;91.00;;;56.08;;
55330;SDS011;58851;42.984;20.336;2022-10-12T14:20:28;73.85;;;50.75;;
55330;SDS011;58851;42.984;20.336;2022-10-12T14:22:57;50.67;;;35.67;;
55330;SDS011;58851;42.984;20.336;2022-10-12T14:25:26;43.40;;;32.17;;
55330;SDS011;58851;42.984;20.336;2022-10-12T14:27:59;43.35;;;29.40;;
55330;SDS011;58851;42.984;20.336;2022-10-12T14:30:29;31.38;;;23.33;;
55330;SDS011;58851;42.984;20.336;2022-10-12T14:33:11;37.38;;;24.42;;
55330;SDS011;58851;42.984;20.336;2022-10-12T14:35:46;37.72;;;27.30;;
55330;SDS011;58851;42.984;20.336;2022-10-12T14:46:53;52.20;;;36.13;;
55330;SDS011;58851;42.984;20.336;2022-10-12T14:49:40;60.00;;;40.42;;
55330;SDS011;58851;42.984;20.336;2022-10-12T14:52:26;58.67;;;41.75;;
55330;SDS011;58851;42.984;20.336;2022-10-12T14:55:22;55.83;;;40.65;;
55330;SDS011;58851;42.984;20.336;2022-10-12T14:57:50;61.00;;;45.95;;
55330;SDS011;58851;42.984;20.336;2022-10-12T15:00:37;54.42;;;39.88;;
55330;SDS011;58851;42.984;20.336;2022-10-12T15:03:02;55.90;;;37.45;;
55330;SDS011;58851;42.984;20.336;2022-10-12T15:05:29;41.22;;;32.42;;
55330;SDS011;58851;42.984;20.336;2022-10-12T15:07:57;47.63;;;34.75;;
55330;SDS011;58851;42.984;20.336;2022-10-12T15:10:24;43.53;;;31.48;;
55330;SDS011;58851;42.984;20.336;2022-10-12T15:12:51;39.58;;;29.52;;
55330;SDS011;58851;42.984;20.336;2022-10-12T15:18:10;43.50;;;29.23;;
55330;SDS011;58851;42.984;20.336;2022-10-12T15:20:36;42.20;;;27.13;;
55330;SDS011;58851;42.984;20.336;2022-10-12T15:23:03;47.90;;;29.02;;
55330;SDS011;58851;42.984;20.336;2022-10-12T15:28:18;47.75;;;28.33;;
55330;SDS011;58851;42.984;20.336;2022-10-12T15:30:46;43.40;;;24.77;;
55330;SDS011;58851;42.984;20.336;2022-10-12T15:33:12;31.85;;;24.95;;
55330;SDS011;58851;42.984;20.336;2022-10-12T15:35:38;37.08;;;25.83;;
55330;SDS011;58851;42.984;20.336;2022-10-12T15:38:04;43.38;;;28.23;;
55330;SDS011;58851;42.984;20.336;2022-10-12T15:40:31;44.92;;;30.98;;
55330;SDS011;58851;42.984;20.336;2022-10-12T15:42:58;42.80;;;29.77;;
55330;SDS011;58851;42.984;20.336;2022-10-12T15:45:30;38.90;;;27.05;;
55330;SDS011;58851;42.984;20.336;2022-10-12T15:47:58;36.15;;;23.83;;
55330;SDS011;58851;42.984;20.336;2022-10-12T15:50:25;32.83;;;22.90;;
55330;SDS011;58851;42.984;20.336;2022-10-12T15:52:54;46.72;;;26.02;;
55330;SDS011;58851;42.984;20.336;2022-10-12T15:55:22;45.75;;;28.90;;
55330;SDS011;58851;42.984;20.336;2022-10-12T15:57:49;54.22;;;32.42;;
55330;SDS011;58851;42.984;20.336;2022-10-12T16:00:16;46.88;;;31.08;;
55330;SDS011;58851;42.984;20.336;2022-10-12T16:02:44;54.70;;;35.25;;
55330;SDS011;58851;42.984;20.336;2022-10-12T16:05:15;62.55;;;39.53;;
55330;SDS011;58851;42.984;20.336;2022-10-12T16:07:43;52.80;;;33.42;;
55330;SDS011;58851;42.984;20.336;2022-10-12T16:10:10;81.93;;;58.80;;
55330;SDS011;58851;42.984;20.336;2022-10-12T16:12:46;75.15;;;54.42;;
55330;SDS011;58851;42.984;20.336;2022-10-12T16:15:14;65.82;;;45.58;;
55330;SDS011;58851;42.984;20.336;2022-10-12T16:17:50;65.10;;;44.38;;
55330;SDS011;58851;42.984;20.336;2022-10-12T16:20:16;68.13;;;50.22;;
55330;SDS011;58851;42.984;20.336;2022-10-12T16:22:42;83.47;;;60.15;;
55330;SDS011;58851;42.984;20.336;2022-10-12T16:25:09;120.57;;;79.70;;
55330;SDS011;58851;42.984;20.336;2022-10-12T16:27:37;213.35;;;138.23;;
55330;SDS011;58851;42.984;20.336;2022-10-12T16:30:03;119.60;;;80.68;;
55330;SDS011;58851;42.984;20.336;2022-10-12T16:32:30;96.90;;;71.70;;
55330;SDS011;58851;42.984;20.336;2022-10-12T16:34:56;114.30;;;90.93;;
55330;SDS011;58851;42.984;20.336;2022-10-12T16:37:22;124.50;;;88.90;;
55330;SDS011;58851;42.984;20.336;2022-10-12T16:39:50;147.82;;;94.72;;
55330;SDS011;58851;42.984;20.336;2022-10-12T16:42:17;114.97;;;78.13;;